createdAt,value
2023-03-21T00:01:53.786Z,50.80
2023-03-21T00:04:23.307Z,51.30
2023-03-21T00:06:53.380Z,53.90
2023-03-21T00:09:22.329Z,53.87
2023-03-21T00:11:50.693Z,52.87
2023-03-21T00:14:20.122Z,53.80
2023-03-21T00:19:41.285Z,54.63
2023-03-21T00:22:11.034Z,54.97
2023-03-21T00:24:39.524Z,56.20
2023-03-21T00:27:39.428Z,58.53
2023-03-21T00:29:57.216Z,55.87
2023-03-21T00:32:25.578Z,56.20
2023-03-21T00:35:11.813Z,52.77
2023-03-21T00:37:44.182Z,54.97
2023-03-21T00:40:25.382Z,52.00
2023-03-21T00:42:56.200Z,51.07
2023-03-21T00:45:24.534Z,50.10
2023-03-21T00:47:53.115Z,51.80
2023-03-21T00:50:21.575Z,46.90
2023-03-21T00:52:51.370Z,48.47
2023-03-21T00:55:21.160Z,48.77
2023-03-21T00:57:56.131Z,47.90
2023-03-21T01:00:29.970Z,44.33
2023-03-21T01:03:04.395Z,45.17
2023-03-21T01:05:55.511Z,47.07
2023-03-21T01:08:31.177Z,45.67
2023-03-21T01:11:05.566Z,45.47
2023-03-21T01:13:36.392Z,47.57
2023-03-21T01:16:07.310Z,44.90
2023-03-21T01:18:37.836Z,46.33
2023-03-21T01:21:10.371Z,47.17
2023-03-21T01:23:42.370Z,49.13
2023-03-21T01:26:12.210Z,47.07
2023-03-21T01:28:42.628Z,48.10
2023-03-21T01:31:13.571Z,48.67
2023-03-21T01:33:42.484Z,45.97
2023-03-21T01:36:16.941Z,45.97
2023-03-21T01:38:47.147Z,46.03
2023-03-21T01:41:26.176Z,48.27
2023-03-21T01:43:57.328Z,47.40
2023-03-21T01:46:53.995Z,45.60
2023-03-21T01:49:36.146Z,47.60
2023-03-21T01:52:41.903Z,46.97
2023-03-21T01:55:29.574Z,49.10
2023-03-21T01:58:07.372Z,49.17
2023-03-21T02:01:06.578Z,47.20
2023-03-21T02:03:51.368Z,47.60
2023-03-21T02:06:56.740Z,46.30
2023-03-21T02:09:36.347Z,44.70
2023-03-21T02:12:10.486Z,49.80
2023-03-21T02:14:40.733Z,48.10
2023-03-21T02:17:27.135Z,47.60
2023-03-21T02:20:51.210Z,45.70
2023-03-21T02:24:03.272Z,46.93
2023-03-21T02:27:03.871Z,48.80
2023-03-21T02:30:01.434Z,47.03
2023-03-21T02:32:43.041Z,48.37
2023-03-21T02:35:29.808Z,51.00
2023-03-21T02:38:04.947Z,47.10
2023-03-21T02:40:39.438Z,49.33
2023-03-21T02:43:22.548Z,48.93
2023-03-21T02:45:55.895Z,48.73
2023-03-21T02:48:38.101Z,46.73
2023-03-21T02:51:17.206Z,49.30
2023-03-21T02:54:02.124Z,49.40
2023-03-21T02:56:41.531Z,47.83
2023-03-21T02:59:11.366Z,48.40
2023-03-21T03:01:40.168Z,50.97
2023-03-21T03:04:20.397Z,49.30
2023-03-21T03:07:12.692Z,47.27
2023-03-21T03:10:07.247Z,46.33
2023-03-21T03:12:44.250Z,46.03
2023-03-21T03:15:23.641Z,50.30
2023-03-21T03:17:56.537Z,47.10
2023-03-21T03:20:34.286Z,48.03
2023-03-21T03:23:13.264Z,49.20
2023-03-21T03:25:51.016Z,47.37
2023-03-21T03:28:24.434Z,46.90
2023-03-21T03:31:08.215Z,45.17
2023-03-21T03:33:56.472Z,46.13
2023-03-21T03:36:32.520Z,46.90
2023-03-21T03:39:07.415Z,47.37
2023-03-21T03:42:06.069Z,50.73
2023-03-21T03:44:38.566Z,46.40
2023-03-21T03:47:17.475Z,49.20
2023-03-21T03:50:03.913Z,48.63
2023-03-21T03:52:50.127Z,48.13
2023-03-21T03:55:27.314Z,46.90
2023-03-21T03:58:03.210Z,48.07
2023-03-21T04:00:34.378Z,50.33
2023-03-21T04:03:03.121Z,45.63
2023-03-21T04:05:31.689Z,50.07
2023-03-21T04:08:00.279Z,52.47
2023-03-21T04:10:36.968Z,51.47
2023-03-21T04:13:07.062Z,46.07
2023-03-21T04:15:45.732Z,46.30
2023-03-21T04:18:17.585Z,43.80
2023-03-21T04:20:48.693Z,47.80
2023-03-21T04:23:18.999Z,49.20
2023-03-21T04:25:56.228Z,48.37
2023-03-21T04:28:31.653Z,49.27
2023-03-21T04:31:22.609Z,48.30
2023-03-21T04:33:56.139Z,47.10
2023-03-21T04:36:33.329Z,45.53
2023-03-21T04:39:04.990Z,47.97
2023-03-21T04:41:34.070Z,48.30
2023-03-21T04:44:04.265Z,49.40
2023-03-21T04:46:33.224Z,52.87
2023-03-21T04:49:02.049Z,48.70
2023-03-21T04:51:30.932Z,50.40
2023-03-21T04:53:59.815Z,52.30
2023-03-21T04:56:32.471Z,50.20
2023-03-21T04:59:04.899Z,50.63
2023-03-21T05:01:34.394Z,49.57
2023-03-21T05:04:04.430Z,47.37
2023-03-21T05:06:35.829Z,50.20
2023-03-21T05:09:07.138Z,49.40
2023-03-21T05:11:39.219Z,46.77
2023-03-21T05:14:11.572Z,48.57
2023-03-21T05:16:48.577Z,48.10
2023-03-21T05:19:19.351Z,48.77
2023-03-21T05:21:49.549Z,47.77
2023-03-21T05:24:23.679Z,47.73
2023-03-21T05:26:56.398Z,50.10
2023-03-21T05:29:31.422Z,47.90
2023-03-21T05:32:04.095Z,47.00
2023-03-21T05:34:33.152Z,47.20
2023-03-21T05:37:02.494Z,44.13
2023-03-21T05:39:43.687Z,44.40
2023-03-21T05:42:19.643Z,42.60
2023-03-21T05:44:49.797Z,48.43
2023-03-21T05:47:23.444Z,46.07
2023-03-21T05:49:53.862Z,46.70
2023-03-21T05:52:23.824Z,43.00
2023-03-21T05:54:52.535Z,44.43
2023-03-21T05:57:24.769Z,44.60
2023-03-21T06:00:01.078Z,41.80
2023-03-21T06:02:31.837Z,43.10
2023-03-21T06:05:04.554Z,43.33
2023-03-21T06:07:33.235Z,41.37
2023-03-21T06:10:01.802Z,42.60
2023-03-21T06:12:31.746Z,38.30
2023-03-21T06:15:25.435Z,37.87
2023-03-21T06:18:14.295Z,37.87
2023-03-21T06:20:52.279Z,36.50
2023-03-21T06:23:20.801Z,39.07
2023-03-21T06:25:50.118Z,34.87
2023-03-21T06:28:19.006Z,29.23
2023-03-21T06:30:48.863Z,27.03
2023-03-21T06:33:23.655Z,26.60
2023-03-21T06:35:54.411Z,26.77
2023-03-21T06:38:24.158Z,27.90
2023-03-21T06:40:53.179Z,28.13
2023-03-21T06:43:23.865Z,26.87
2023-03-21T06:45:53.890Z,28.17
2023-03-21T06:48:22.618Z,27.30
2023-03-21T06:50:53.137Z,26.67
2023-03-21T06:53:27.435Z,24.73
2023-03-21T06:56:12.795Z,24.97
2023-03-21T06:58:42.801Z,24.80
2023-03-21T07:01:21.130Z,26.70
2023-03-21T07:03:59.606Z,26.00
2023-03-21T07:06:30.380Z,26.80
2023-03-21T07:08:59.233Z,24.80
2023-03-21T07:11:28.027Z,26.83
2023-03-21T07:13:57.780Z,25.50
2023-03-21T07:16:27.764Z,25.73
2023-03-21T07:18:56.423Z,24.53
2023-03-21T07:21:24.909Z,25.17
2023-03-21T07:23:53.634Z,25.27
2023-03-21T07:26:22.876Z,23.10
2023-03-21T07:28:51.441Z,24.77
2023-03-21T07:31:20.386Z,22.97
2023-03-21T07:33:51.619Z,22.33
2023-03-21T07:36:21.401Z,24.57
2023-03-21T07:38:49.883Z,23.93
2023-03-21T07:41:23.547Z,24.00
2023-03-21T07:43:52.820Z,23.27
2023-03-21T07:46:21.411Z,24.70
2023-03-21T07:48:51.834Z,24.60
2023-03-21T07:51:20.476Z,22.60
2023-03-21T07:53:49.584Z,23.70
2023-03-21T07:56:18.269Z,24.80
2023-03-21T07:58:46.769Z,24.60
2023-03-21T08:01:15.826Z,24.23
2023-03-21T08:03:44.806Z,23.27
2023-03-21T08:06:15.348Z,24.90
2023-03-21T08:08:43.800Z,23.80
2023-03-21T08:11:13.155Z,24.20
2023-03-21T08:13:42.099Z,25.20
2023-03-21T08:16:11.228Z,22.67
2023-03-21T08:18:40.058Z,22.53
2023-03-21T08:21:09.754Z,21.43
2023-03-21T08:23:39.999Z,22.43
2023-03-21T08:26:09.374Z,21.97
2023-03-21T08:28:39.520Z,20.93
2023-03-21T08:31:09.696Z,22.23
2023-03-21T08:33:38.472Z,20.67
2023-03-21T08:36:08.150Z,20.63
2023-03-21T08:38:37.141Z,21.27
2023-03-21T08:41:07.628Z,20.97
2023-03-21T08:43:36.273Z,21.10
2023-03-21T08:46:05.504Z,21.67
2023-03-21T08:48:34.117Z,22.07
2023-03-21T08:51:02.765Z,24.23
2023-03-21T08:53:31.365Z,23.50
2023-03-21T08:55:59.904Z,24.47
2023-03-21T08:58:29.932Z,25.07
2023-03-21T09:00:58.436Z,24.27
2023-03-21T09:03:27.510Z,26.43
2023-03-21T09:05:56.317Z,24.40
2023-03-21T09:08:24.989Z,26.10
2023-03-21T09:10:55.020Z,29.37
2023-03-21T09:13:24.145Z,32.20
2023-03-21T09:15:54.273Z,32.20
2023-03-21T09:18:42.825Z,29.93
2023-03-21T09:21:12.983Z,30.63
2023-03-21T09:23:41.843Z,32.80
2023-03-21T09:26:11.406Z,32.70
2023-03-21T09:28:40.646Z,29.67
2023-03-21T09:31:12.363Z,28.47
2023-03-21T09:33:41.689Z,30.00
2023-03-21T09:36:14.267Z,29.40
2023-03-21T09:38:45.687Z,29.10
2023-03-21T09:41:31.810Z,31.17
2023-03-21T09:44:14.087Z,31.30
2023-03-21T09:46:49.084Z,32.70
2023-03-21T09:49:21.162Z,32.67
2023-03-21T09:51:52.949Z,34.03
2023-03-21T09:54:27.425Z,31.77
2023-03-21T09:56:58.996Z,35.20
2023-03-21T09:59:35.643Z,35.53
2023-03-21T10:02:14.877Z,37.20
2023-03-21T10:04:44.162Z,34.30
2023-03-21T10:07:18.173Z,33.67
2023-03-21T10:09:48.533Z,31.10
2023-03-21T10:12:30.697Z,31.80
2023-03-21T10:15:02.166Z,34.90
2023-03-21T10:17:40.910Z,33.47
2023-03-21T10:20:16.385Z,33.90
2023-03-21T10:22:47.740Z,32.00
2023-03-21T10:25:18.409Z,31.90
2023-03-21T10:27:48.168Z,33.40
2023-03-21T10:30:29.771Z,32.90
2023-03-21T10:33:05.160Z,30.60
2023-03-21T10:35:37.395Z,29.90
2023-03-21T10:38:07.500Z,28.23
2023-03-21T10:40:36.038Z,29.13
2023-03-21T10:43:20.143Z,29.73
2023-03-21T10:45:48.999Z,27.40
2023-03-21T10:48:19.302Z,27.40
2023-03-21T10:50:50.652Z,31.00
2023-03-21T10:53:22.522Z,31.57
2023-03-21T10:55:55.359Z,29.43
2023-03-21T10:58:27.586Z,25.10
2023-03-21T11:00:59.370Z,23.47
2023-03-21T11:03:32.818Z,25.03
2023-03-21T11:06:04.321Z,25.80
2023-03-21T11:08:38.583Z,24.93
2023-03-21T11:11:08.890Z,25.40
2023-03-21T11:13:40.900Z,26.70
2023-03-21T11:16:12.044Z,26.07
2023-03-21T11:18:45.116Z,27.33
2023-03-21T11:21:15.949Z,27.13
2023-03-21T11:23:48.022Z,27.77
2023-03-21T11:26:24.217Z,26.57
2023-03-21T11:28:53.173Z,24.13
2023-03-21T11:31:24.841Z,23.13
2023-03-21T11:33:59.936Z,23.93
2023-03-21T11:36:39.100Z,22.40
2023-03-21T11:39:25.455Z,23.83
2023-03-21T11:41:54.412Z,23.20
2023-03-21T11:44:29.666Z,25.77
2023-03-21T11:46:58.366Z,23.90
2023-03-21T11:49:28.649Z,23.10
2023-03-21T11:52:09.956Z,23.93
2023-03-21T11:54:52.577Z,24.13
2023-03-21T11:57:28.221Z,23.70
2023-03-21T12:00:02.300Z,25.20
2023-03-21T12:02:57.808Z,24.60
2023-03-21T12:05:30.480Z,24.33
2023-03-21T12:08:07.371Z,23.17
2023-03-21T12:10:44.068Z,23.80
2023-03-21T12:13:28.068Z,23.53
2023-03-21T12:16:06.599Z,28.70
2023-03-21T12:19:00.748Z,28.17
2023-03-21T12:21:36.165Z,24.67
2023-03-21T12:24:10.514Z,22.27
2023-03-21T12:26:46.808Z,23.40
2023-03-21T12:29:34.917Z,24.93
2023-03-21T12:32:19.200Z,25.77
2023-03-21T12:35:16.100Z,27.53
2023-03-21T12:37:57.379Z,27.17
2023-03-21T12:40:40.423Z,25.97
2023-03-21T12:43:28.280Z,26.90
2023-03-21T12:46:02.236Z,25.67
2023-03-21T12:48:39.610Z,26.87
2023-03-21T12:51:12.748Z,26.60
2023-03-21T12:53:59.237Z,25.80
2023-03-21T12:56:32.617Z,28.27
2023-03-21T12:59:07.419Z,25.40
2023-03-21T13:01:40.243Z,27.67
2023-03-21T13:04:31.937Z,24.90
2023-03-21T13:07:03.330Z,28.67
2023-03-21T13:09:38.216Z,26.03
2023-03-21T13:12:20.507Z,25.20
2023-03-21T13:15:01.345Z,27.13
2023-03-21T13:17:37.180Z,28.30
2023-03-21T13:20:14.409Z,28.87
2023-03-21T13:22:42.971Z,27.90
2023-03-21T13:25:20.800Z,26.13
2023-03-21T13:27:54.931Z,27.47
2023-03-21T13:30:26.536Z,24.90
2023-03-21T13:33:05.486Z,26.00
2023-03-21T13:35:38.414Z,27.40
2023-03-21T13:38:16.533Z,26.73
2023-03-21T13:40:50.199Z,26.63
2023-03-21T13:43:37.176Z,26.63
2023-03-21T13:46:10.885Z,26.30
2023-03-21T13:48:57.818Z,26.23
2023-03-21T13:51:47.627Z,25.77
2023-03-21T13:54:51.141Z,25.10
2023-03-21T13:57:39.360Z,23.77
2023-03-21T14:00:24.277Z,24.23
2023-03-21T14:03:00.817Z,24.97
2023-03-21T14:05:30.180Z,24.47
2023-03-21T14:08:13.622Z,22.13
2023-03-21T14:10:46.714Z,24.23
2023-03-21T14:13:20.114Z,23.77
2023-03-21T14:15:55.936Z,21.67
2023-03-21T14:18:35.246Z,21.63
2023-03-21T14:21:23.321Z,22.00
2023-03-21T14:24:03.265Z,21.50
2023-03-21T14:26:35.451Z,21.87
2023-03-21T14:29:22.829Z,21.53
2023-03-21T14:31:54.697Z,21.00
2023-03-21T14:34:24.588Z,20.77
2023-03-21T14:36:58.249Z,19.77
2023-03-21T14:39:29.871Z,20.90
2023-03-21T14:42:04.326Z,20.60
2023-03-21T14:44:53.001Z,18.90
2023-03-21T14:47:24.418Z,19.70
2023-03-21T14:49:53.404Z,19.47
2023-03-21T14:52:25.301Z,19.23
2023-03-21T14:54:55.902Z,18.47
2023-03-21T14:57:27.772Z,18.17
2023-03-21T15:00:01.724Z,19.40
2023-03-21T15:02:34.971Z,18.20
2023-03-21T15:05:11.400Z,18.17
2023-03-21T15:07:39.996Z,17.13
2023-03-21T15:10:16.581Z,17.20
2023-03-21T15:12:53.027Z,16.10
2023-03-21T15:15:27.214Z,16.13
2023-03-21T15:18:06.932Z,16.47
2023-03-21T15:20:38.839Z,16.80
2023-03-21T15:23:11.315Z,16.53
2023-03-21T15:25:40.975Z,16.20
2023-03-21T15:28:12.283Z,15.90
2023-03-21T15:30:50.040Z,16.37
2023-03-21T15:33:19.698Z,14.50
2023-03-21T15:35:55.505Z,16.80
2023-03-21T15:38:30.672Z,15.20
2023-03-21T15:41:16.230Z,15.60
2023-03-21T15:43:45.301Z,13.50
2023-03-21T15:46:20.814Z,13.63
2023-03-21T15:48:52.113Z,14.20
2023-03-21T15:51:24.679Z,14.13
2023-03-21T15:53:54.461Z,13.00
2023-03-21T15:56:25.147Z,12.77
2023-03-21T15:58:54.470Z,13.00
2023-03-21T16:01:26.393Z,13.40
2023-03-21T16:03:58.890Z,13.60
2023-03-21T16:06:34.206Z,12.77
2023-03-21T16:09:11.917Z,12.30
2023-03-21T16:11:41.837Z,11.20
2023-03-21T16:14:10.815Z,12.40
2023-03-21T16:16:41.058Z,11.90
2023-03-21T16:19:09.599Z,11.80
2023-03-21T16:21:39.259Z,11.63
2023-03-21T16:24:11.068Z,11.80
2023-03-21T16:26:43.627Z,12.10
2023-03-21T16:29:14.320Z,13.10
2023-03-21T16:31:45.131Z,12.00
2023-03-21T16:34:13.778Z,11.80
2023-03-21T16:36:44.113Z,12.40
2023-03-21T16:39:19.253Z,11.00
2023-03-21T16:41:48.035Z,10.70
2023-03-21T16:44:16.698Z,11.20
2023-03-21T16:46:47.690Z,11.40
2023-03-21T16:49:21.035Z,12.70
2023-03-21T16:51:49.573Z,12.90
2023-03-21T16:54:18.110Z,14.27
2023-03-21T16:56:50.604Z,14.23
2023-03-21T16:59:19.397Z,12.90
2023-03-21T17:01:50.257Z,13.77
2023-03-21T17:04:19.887Z,14.20
2023-03-21T17:06:49.955Z,14.07
2023-03-21T17:09:21.192Z,14.97
2023-03-21T17:11:49.834Z,15.13
2023-03-21T17:14:18.882Z,14.13
2023-03-21T17:16:47.498Z,21.60
2023-03-21T17:19:19.297Z,20.23
2023-03-21T17:21:47.768Z,16.43
2023-03-21T17:24:16.882Z,15.73
2023-03-21T17:26:45.440Z,15.67
2023-03-21T17:29:15.529Z,16.50
2023-03-21T17:31:47.357Z,16.20
2023-03-21T17:34:18.056Z,15.73
2023-03-21T17:36:48.929Z,15.80
2023-03-21T17:39:21.558Z,18.10
2023-03-21T17:41:50.139Z,15.73
2023-03-21T17:44:18.750Z,16.70
2023-03-21T17:46:49.586Z,17.37
2023-03-21T17:49:21.297Z,16.73
2023-03-21T17:51:50.556Z,17.50
2023-03-21T17:54:19.140Z,15.50
2023-03-21T17:56:48.490Z,17.03
2023-03-21T17:59:16.992Z,16.23
2023-03-21T18:01:45.657Z,16.70
2023-03-21T18:04:14.233Z,17.33
2023-03-21T18:06:44.960Z,16.57
2023-03-21T18:09:13.769Z,16.73
2023-03-21T18:11:42.344Z,17.23
2023-03-21T18:14:17.501Z,16.57
2023-03-21T18:16:46.780Z,17.23
2023-03-21T18:19:15.731Z,17.50
2023-03-21T18:21:46.075Z,17.33
2023-03-21T18:24:15.139Z,17.27
2023-03-21T18:26:46.003Z,17.80
2023-03-21T18:32:07.753Z,17.83
2023-03-21T18:34:38.801Z,16.70
2023-03-21T18:37:13.164Z,15.73
2023-03-21T18:39:44.566Z,15.90
2023-03-21T18:42:18.008Z,17.73
2023-03-21T18:44:49.216Z,17.33
2023-03-21T18:47:18.408Z,18.90
2023-03-21T18:50:13.741Z,17.20
2023-03-21T18:52:37.449Z,19.70
2023-03-21T18:55:06.843Z,23.10
2023-03-21T18:57:38.286Z,19.90
2023-03-21T19:00:12.914Z,18.97
2023-03-21T19:02:46.698Z,19.00
2023-03-21T19:05:17.715Z,20.10
2023-03-21T19:07:48.214Z,19.50
2023-03-21T19:10:19.949Z,18.80
2023-03-21T19:12:49.639Z,18.20
2023-03-21T19:15:21.337Z,16.03
2023-03-21T19:20:40.143Z,18.67
2023-03-21T19:23:10.912Z,18.10
2023-03-21T19:25:39.582Z,18.27
2023-03-21T19:28:08.287Z,16.90
2023-03-21T19:30:37.677Z,17.67
2023-03-21T19:33:06.398Z,18.53
2023-03-21T19:35:37.308Z,18.30
2023-03-21T19:38:06.450Z,18.70
2023-03-21T19:40:36.677Z,16.43
2023-03-21T19:43:28.548Z,17.70
2023-03-21T19:45:54.336Z,17.13
2023-03-21T19:48:23.700Z,16.03
2023-03-21T19:51:25.732Z,17.30
2023-03-21T19:53:41.411Z,17.73
2023-03-21T19:56:21.754Z,17.50
2023-03-21T19:58:52.614Z,16.43
2023-03-21T20:01:21.379Z,17.60
2023-03-21T20:03:50.067Z,17.00
2023-03-21T20:06:19.037Z,17.13
2023-03-21T20:09:24.723Z,17.43
2023-03-21T20:11:37.938Z,17.57
2023-03-21T20:14:06.548Z,18.37
2023-03-21T20:16:36.712Z,17.10
2023-03-21T20:19:08.880Z,18.00
2023-03-21T20:21:48.122Z,17.63
2023-03-21T20:24:20.919Z,18.77
2023-03-21T20:26:53.722Z,17.23
2023-03-21T20:32:10.940Z,18.17
2023-03-21T20:34:39.502Z,16.97
2023-03-21T20:37:08.204Z,17.90
2023-03-21T20:39:36.742Z,18.10
2023-03-21T20:42:07.194Z,18.30
2023-03-21T20:47:24.956Z,18.60
2023-03-21T20:49:55.177Z,16.70
2023-03-21T20:55:13.354Z,17.77
2023-03-21T20:57:43.170Z,16.27
2023-03-21T21:00:15.280Z,16.77
2023-03-21T21:02:45.217Z,16.17
2023-03-21T21:05:26.011Z,16.40
2023-03-21T21:07:57.549Z,15.77
2023-03-21T21:10:26.852Z,16.10
2023-03-21T21:12:56.945Z,18.07
2023-03-21T21:15:25.460Z,16.93
2023-03-21T21:18:06.635Z,16.40
2023-03-21T21:20:37.128Z,15.20
2023-03-21T21:23:06.448Z,17.03
2023-03-21T21:25:35.872Z,15.73
2023-03-21T21:28:09.271Z,14.40
2023-03-21T21:30:41.492Z,14.03
2023-03-21T21:33:10.249Z,13.90
2023-03-21T21:35:39.453Z,14.30
2023-03-21T21:38:08.512Z,13.30
2023-03-21T21:40:37.534Z,14.53
2023-03-21T21:43:07.686Z,14.23
2023-03-21T21:45:37.418Z,14.10
2023-03-21T21:48:08.205Z,12.50
2023-03-21T21:50:38.917Z,14.10
2023-03-21T21:53:07.660Z,14.13
2023-03-21T21:55:36.933Z,13.60
2023-03-21T21:58:08.531Z,12.27
2023-03-21T22:00:37.331Z,12.30
2023-03-21T22:03:06.398Z,12.03
2023-03-21T22:05:34.938Z,12.47
2023-03-21T22:08:04.239Z,11.73
2023-03-21T22:10:33.772Z,11.57
2023-03-21T22:13:02.478Z,12.83
2023-03-21T22:15:33.408Z,13.03
2023-03-21T22:18:02.103Z,10.93
2023-03-21T22:20:30.617Z,11.30
2023-03-21T22:22:59.768Z,11.07
2023-03-21T22:25:28.878Z,12.27
2023-03-21T22:27:57.746Z,11.20
2023-03-21T22:30:26.253Z,11.27
2023-03-21T22:33:08.535Z,11.20
2023-03-21T22:35:38.068Z,10.80
2023-03-21T22:38:07.043Z,10.63
2023-03-21T22:40:35.706Z,10.73
2023-03-21T22:43:04.524Z,11.33
2023-03-21T22:45:34.973Z,11.30
2023-03-21T22:48:06.315Z,10.80
2023-03-21T22:50:35.141Z,12.13
2023-03-21T22:53:03.787Z,13.83
2023-03-21T22:55:32.343Z,13.30
2023-03-21T22:58:01.163Z,13.03
2023-03-21T23:00:29.866Z,12.93
2023-03-21T23:02:59.789Z,13.77
2023-03-21T23:05:29.952Z,14.23
2023-03-21T23:07:58.472Z,13.90
2023-03-21T23:10:27.139Z,13.57
2023-03-21T23:12:55.654Z,13.93
2023-03-21T23:15:24.301Z,13.47
2023-03-21T23:17:52.865Z,14.10
2023-03-21T23:20:21.510Z,14.77
2023-03-21T23:22:51.415Z,14.07
2023-03-21T23:25:22.131Z,13.83
2023-03-21T23:27:50.650Z,13.80
2023-03-21T23:30:19.385Z,13.67
2023-03-21T23:32:48.615Z,12.50
2023-03-21T23:35:17.457Z,14.07
2023-03-21T23:37:50.265Z,13.53
2023-03-21T23:40:20.931Z,13.13
2023-03-21T23:42:49.468Z,13.20
2023-03-21T23:45:18.418Z,14.40
2023-03-21T23:47:46.907Z,14.80
2023-03-21T23:50:15.504Z,13.23
2023-03-21T23:52:44.844Z,14.43
2023-03-21T23:55:13.486Z,14.07
2023-03-21T23:57:43.970Z,14.53
